Time;durP1;ratioP1;P1;durP2;ratioP2;P2;SDS_P1;SDS_P2;PMS_P1;PMS_P2;Temp;Humidity;BMP_temperature;BMP_pressure;BME280_temperature;BME280_humidity;BME280_pressure;Samples;Min_cycle;Max_cycle;Signal;HPM_P1;HPM_P2
2024/03/24 00:00:22;;;;;;;7.05;2.65;;;;;;;9.60;56.09;100481.63;4941135;28;97226;-92
2024/03/24 00:02:47;;;;;;;5.78;3.08;;;;;;;9.61;56.09;100480.78;4937766;28;99449;-91
2024/03/24 00:05:13;;;;;;;7.22;3.03;;;;;;;9.60;56.19;100476.41;4957874;28;99399;-91
2024/03/24 00:07:39;;;;;;;7.93;3.10;;;;;;;9.58;56.42;100472.06;4959359;28;96821;-92
2024/03/24 00:10:06;;;;;;;7.10;2.97;;;;;;;9.58;56.44;100487.69;4948110;28;96735;-91
2024/03/24 00:12:32;;;;;;;10.55;2.80;;;;;;;9.56;56.31;100466.81;4948063;28;100392;-93
2024/03/24 00:14:57;;;;;;;9.70;3.22;;;;;;;9.53;56.72;100458.97;4941890;28;98915;-91
2024/03/24 00:17:23;;;;;;;10.77;3.45;;;;;;;9.52;56.80;100462.47;4947464;28;96839;-91
2024/03/24 00:19:49;;;;;;;6.70;3.05;;;;;;;9.51;56.88;100463.31;4951380;28;96831;-91
2024/03/24 00:22:15;;;;;;;7.30;3.03;;;;;;;9.50;56.82;100459.84;4954648;28;96865;-90
2024/03/24 00:24:40;;;;;;;7.60;2.83;;;;;;;9.50;57.02;100452.03;4950123;28;96949;-90
2024/03/24 00:27:06;;;;;;;5.30;2.92;;;;;;;9.50;57.25;100439.00;4943198;28;96888;-92
2024/03/24 00:29:31;;;;;;;6.35;2.72;;;;;;;9.50;57.08;100443.31;4954716;28;97046;-92
2024/03/24 00:31:57;;;;;;;6.95;2.60;;;;;;;9.50;57.23;100432.91;4939019;28;101084;-91
2024/03/24 00:34:22;;;;;;;9.27;3.08;;;;;;;9.51;57.58;100430.31;4935522;28;98715;-91
2024/03/24 00:36:48;;;;;;;9.48;3.38;;;;;;;9.52;57.38;100421.66;4954131;28;96876;-91
2024/03/24 00:39:13;;;;;;;11.25;3.25;;;;;;;9.53;57.55;100422.53;4963394;28;96911;-90
2024/03/24 00:41:39;;;;;;;4.95;2.85;;;;;;;9.54;57.68;100413.88;4956174;28;99162;-91
2024/03/24 00:44:05;;;;;;;9.65;3.40;;;;;;;9.57;57.49;100413.88;4951986;28;98952;-91
2024/03/24 00:46:31;;;;;;;9.68;3.17;;;;;;;9.57;57.48;100413.88;4944480;28;96963;-91
2024/03/24 00:48:57;;;;;;;12.80;3.38;;;;;;;9.58;57.63;100410.44;4964628;28;96742;-91
2024/03/24 00:51:22;;;;;;;9.30;3.28;;;;;;;9.60;57.65;100407.84;4960818;28;96916;-91
2024/03/24 00:53:48;;;;;;;8.32;3.17;;;;;;;9.61;57.96;100405.25;4948777;28;100509;-91
2024/03/24 00:56:13;;;;;;;10.63;4.30;;;;;;;9.63;57.79;100400.94;4961770;28;96969;-92
2024/03/24 00:58:39;;;;;;;8.65;2.83;;;;;;;9.64;57.61;100400.09;4969344;28;96788;-92
2024/03/24 01:01:05;;;;;;;9.25;2.90;;;;;;;9.65;57.61;100395.75;4961333;28;100496;-92
2024/03/24 01:03:32;;;;;;;9.82;3.03;;;;;;;9.67;57.90;100384.47;4957753;28;100404;-91
2024/03/24 01:05:57;;;;;;;9.65;2.70;;;;;;;9.68;57.71;100381.03;4953541;28;96815;-91
2024/03/24 01:08:23;;;;;;;7.53;2.58;;;;;;;9.66;57.73;100381.84;4941431;28;96802;-91
2024/03/24 01:10:48;;;;;;;10.15;2.60;;;;;;;9.63;57.78;100382.72;4957873;28;100483;-91
2024/03/24 01:13:13;;;;;;;9.73;2.90;;;;;;;9.61;58.03;100374.00;4961523;28;97791;-91
2024/03/24 01:15:46;;;;;;;8.50;2.45;;;;;;;9.61;58.08;100383.56;4966982;28;96787;-92
2024/03/24 01:18:12;;;;;;;9.45;2.15;;;;;;;9.61;58.09;100366.19;4938579;28;96948;-90
2024/03/24 01:20:38;;;;;;;11.90;2.78;;;;;;;9.62;58.12;100367.06;4955510;28;97654;-91
2024/03/24 01:23:03;;;;;;;9.10;2.30;;;;;;;9.63;58.19;100353.19;4960202;28;96770;-91
2024/03/24 01:25:28;;;;;;;7.40;2.60;;;;;;;9.65;58.30;100354.94;4950691;28;96813;-92
2024/03/24 01:27:54;;;;;;;7.25;2.50;;;;;;;9.68;58.21;100349.78;4954520;28;96771;-91
2024/03/24 01:30:19;;;;;;;9.55;2.47;;;;;;;9.69;58.34;100348.88;4940591;28;99412;-83
2024/03/24 01:32:45;;;;;;;6.13;2.80;;;;;;;9.72;58.59;100333.28;4952618;28;97929;-84
2024/03/24 01:35:10;;;;;;;9.30;2.67;;;;;;;9.76;58.44;100330.72;4956704;28;96952;-84
2024/03/24 01:37:36;;;;;;;9.45;2.63;;;;;;;9.78;58.59;100319.44;4957408;28;96970;-84
2024/03/24 01:40:02;;;;;;;11.70;2.97;;;;;;;9.82;58.41;100325.53;4955518;28;100405;-83
2024/03/24 01:42:28;;;;;;;12.00;3.45;;;;;;;9.84;58.76;100319.50;4958478;28;100106;-84
2024/03/24 01:44:54;;;;;;;12.23;3.03;;;;;;;9.86;58.41;100309.97;4958173;28;96792;-83
2024/03/24 01:47:20;;;;;;;12.75;3.30;;;;;;;9.89;58.66;100309.09;4956635;28;97097;-83
2024/03/24 01:49:45;;;;;;;8.48;2.88;;;;;;;9.94;58.77;100304.78;4955273;28;110360;-83
2024/03/24 01:52:13;;;;;;;10.45;3.63;;;;;;;9.98;58.62;100300.47;4957549;28;97426;-83
2024/03/24 01:54:39;;;;;;;10.85;3.03;;;;;;;10.01;58.57;100301.38;4950935;28;96931;-84
2024/03/24 01:57:05;;;;;;;10.40;3.17;;;;;;;10.04;58.43;100306.59;4938599;28;96887;-84
2024/03/24 01:59:30;;;;;;;8.50;2.88;;;;;;;10.07;58.57;100301.41;4955636;28;97985;-83
2024/03/24 02:01:56;;;;;;;8.48;3.38;;;;;;;10.09;58.47;100304.03;4949857;28;97290;-84
2024/03/24 02:04:22;;;;;;;10.77;2.90;;;;;;;10.12;58.33;100303.16;4954286;28;96925;-85
2024/03/24 02:06:47;;;;;;;9.82;2.97;;;;;;;10.09;58.20;100309.25;4943506;28;96964;-84
2024/03/24 02:09:13;;;;;;;10.00;2.80;;;;;;;10.04;58.21;100300.53;4951057;28;100491;-85
2024/03/24 02:11:39;;;;;;;11.13;2.72;;;;;;;10.01;58.31;100308.31;4957546;28;100953;-85
2024/03/24 02:14:04;;;;;;;10.27;3.25;;;;;;;9.97;58.40;100307.44;4944518;28;96939;-85
2024/03/24 02:16:30;;;;;;;13.63;3.13;;;;;;;9.95;58.58;100297.88;4955518;28;96899;-83
2024/03/24 02:18:55;;;;;;;9.88;2.70;;;;;;;9.94;58.90;100288.31;4944509;28;100450;-84
2024/03/24 02:21:21;;;;;;;16.05;3.35;;;;;;;9.94;59.02;100290.91;4942596;28;100135;-83
2024/03/24 02:23:49;;;;;;;14.35;3.53;;;;;;;9.96;58.93;100302.19;4954095;28;96916;-84
2024/03/24 02:26:15;;;;;;;7.65;2.78;;;;;;;9.95;59.11;100297.88;4944061;28;96887;-83
2024/03/24 02:28:41;;;;;;;10.52;3.20;;;;;;;9.96;59.26;100297.00;4954639;28;100316;-84
2024/03/24 02:31:07;;;;;;;16.88;3.65;;;;;;;9.97;59.45;100293.53;4956976;28;97164;-84
2024/03/24 02:33:32;;;;;;;10.57;2.42;;;;;;;9.98;59.26;100288.34;4952014;28;96978;-85
2024/03/24 02:35:57;;;;;;;11.30;3.33;;;;;;;9.96;59.31;100290.03;4941618;28;96976;-85
2024/03/24 02:38:23;;;;;;;11.93;2.67;;;;;;;9.96;58.93;100286.56;4954858;28;97673;-84
2024/03/24 02:40:49;;;;;;;9.75;2.70;;;;;;;9.96;59.18;100290.03;4957653;28;100181;-85
2024/03/24 02:43:14;;;;;;;12.60;3.20;;;;;;;9.97;59.36;100291.78;4951821;28;96875;-84
2024/03/24 02:45:41;;;;;;;10.93;2.90;;;;;;;9.97;59.22;100285.72;4955929;28;96960;-85
2024/03/24 02:48:06;;;;;;;10.18;2.70;;;;;;;9.95;58.92;100287.44;4948074;28;100203;-85
2024/03/24 02:50:32;;;;;;;10.48;2.75;;;;;;;9.92;58.92;100275.25;4953478;28;100047;-85
2024/03/24 02:52:57;;;;;;;8.93;2.53;;;;;;;9.88;59.01;100265.69;4955660;28;96782;-84
2024/03/24 02:55:25;;;;;;;15.57;2.65;;;;;;;9.84;59.09;100262.19;4957680;28;96873;-84
2024/03/24 02:57:54;;;;;;;8.05;2.40;;;;;;;9.83;59.17;100270.00;4945904;28;100476;-84
2024/03/24 03:00:20;;;;;;;10.85;2.80;;;;;;;9.82;59.11;100274.34;4954266;28;100634;-84
2024/03/24 03:02:45;;;;;;;10.65;3.00;;;;;;;9.81;59.31;100262.16;4957057;28;97002;-85
2024/03/24 03:05:11;;;;;;;13.13;3.38;;;;;;;9.83;59.43;100250.03;4945307;28;97024;-84
2024/03/24 03:07:36;;;;;;;15.70;4.15;;;;;;;9.82;59.47;100258.72;4955990;28;97968;-85
2024/03/24 03:10:07;;;;;;;13.88;4.32;;;;;;;9.83;59.76;100255.22;4940844;28;100574;-84
2024/03/24 03:12:36;;;;;;;15.43;4.28;;;;;;;9.85;59.65;100252.63;4945270;28;96843;-84
2024/03/24 03:15:05;;;;;;;20.05;3.97;;;;;;;9.88;59.96;100255.28;4953170;28;96870;-84
2024/03/24 03:17:31;;;;;;;18.70;4.68;;;;;;;9.93;59.98;100286.53;4956466;28;101110;-85
2024/03/24 03:19:59;;;;;;;12.20;3.60;;;;;;;9.96;59.74;100289.19;4961121;28;97759;-84
2024/03/24 03:22:27;;;;;;;13.23;3.35;;;;;;;9.96;59.80;100300.47;4952203;28;97005;-84
2024/03/24 03:24:53;;;;;;;6.32;1.85;;;;;;;9.91;59.19;100303.06;4953497;28;96952;-84
2024/03/24 03:27:18;;;;;;;3.63;1.48;;;;;;;9.79;58.81;100305.56;4947559;28;100220;-84
2024/03/24 03:29:44;;;;;;;4.53;1.50;;;;;;;9.66;58.67;100302.00;4953446;28;100781;-83
2024/03/24 03:32:09;;;;;;;5.20;1.65;;;;;;;9.54;58.81;100312.34;4951219;28;96876;-83
2024/03/24 03:34:34;;;;;;;3.55;1.48;;;;;;;9.43;58.77;100304.44;4956100;28;96781;-84
2024/03/24 03:37:00;;;;;;;6.35;1.58;;;;;;;9.32;58.61;100309.53;4942150;28;100366;-84
2024/03/24 03:39:25;;;;;;;2.92;0.95;;;;;;;9.24;58.87;100313.78;4950105;28;100292;-84
2024/03/24 03:41:52;;;;;;;4.32;1.02;;;;;;;9.17;59.14;100322.41;4960070;28;96909;-84
2024/03/24 03:44:18;;;;;;;3.22;1.10;;;;;;;9.10;59.11;100315.38;4932224;28;96873;-84
2024/03/24 03:46:43;;;;;;;5.28;1.50;;;;;;;9.05;59.40;100304.06;4950730;28;100359;-84
2024/03/24 03:49:14;;;;;;;4.18;1.13;;;;;;;9.01;59.42;100317.91;4950435;28;97803;-84
2024/03/24 03:51:39;;;;;;;3.60;1.25;;;;;;;8.97;59.55;100317.00;4942620;28;96909;-84
2024/03/24 03:54:05;;;;;;;3.45;1.10;;;;;;;8.95;59.82;100329.97;4953677;28;96991;-84
2024/03/24 03:56:31;;;;;;;4.95;1.25;;;;;;;8.95;59.74;100313.50;4949827;28;100227;-83
2024/03/24 03:58:56;;;;;;;7.85;1.20;;;;;;;8.91;59.88;100298.72;4951267;28;100557;-83
2024/03/24 04:01:21;;;;;;;3.42;0.73;;;;;;;8.90;60.09;100302.19;4950601;28;96962;-83
2024/03/24 04:03:48;;;;;;;4.68;0.80;;;;;;;8.88;59.86;100302.16;4951204;28;96936;-83
2024/03/24 04:06:13;;;;;;;3.97;1.42;;;;;;;8.88;59.92;100303.91;4956656;28;100206;-83
2024/03/24 04:08:40;;;;;;;4.43;1.00;;;;;;;8.86;60.07;100300.38;4942380;28;100366;-83
2024/03/24 04:11:07;;;;;;;5.53;1.02;;;;;;;8.85;59.92;100296.06;4953731;28;97021;-83
2024/03/24 04:13:33;;;;;;;4.10;1.35;;;;;;;8.85;59.90;100293.47;4954524;28;96924;-83
2024/03/24 04:15:59;;;;;;;5.70;1.42;;;;;;;8.84;60.25;100287.38;4934057;28;100196;-83
2024/03/24 04:18:24;;;;;;;3.33;1.00;;;;;;;8.85;60.43;100278.72;4930066;28;100627;-83
2024/03/24 04:20:49;;;;;;;4.95;1.10;;;;;;;8.87;60.33;100283.94;4949234;28;96900;-83
2024/03/24 04:23:15;;;;;;;6.07;1.55;;;;;;;8.88;60.22;100281.34;4956563;28;96775;-83
2024/03/24 04:25:40;;;;;;;4.10;1.35;;;;;;;8.90;60.25;100289.19;4961849;28;98038;-90
2024/03/24 04:28:06;;;;;;;4.10;1.25;;;;;;;8.90;60.31;100283.97;4940932;28;100374;-91
2024/03/24 04:30:32;;;;;;;4.18;0.95;;;;;;;8.92;60.33;100280.53;4949348;28;96974;-91
2024/03/24 04:33:01;;;;;;;4.43;1.00;;;;;;;8.93;60.24;100283.97;4942211;28;96904;-92
2024/03/24 04:35:27;;;;;;;4.22;1.02;;;;;;;8.93;60.15;100282.28;4959861;28;98023;-92
2024/03/24 04:37:53;;;;;;;4.43;1.05;;;;;;;8.94;60.22;100285.75;4943665;28;100357;-92
2024/03/24 04:40:18;;;;;;;4.50;0.95;;;;;;;8.93;60.23;100289.19;4955312;28;96832;-92
2024/03/24 04:42:44;;;;;;;4.90;1.42;;;;;;;8.93;60.10;100283.97;4957961;28;96792;-92
2024/03/24 04:45:10;;;;;;;4.13;1.20;;;;;;;8.91;60.20;100286.59;4958476;28;97958;-91
2024/03/24 04:47:36;;;;;;;5.18;1.00;;;;;;;8.91;60.08;100286.59;4939956;28;100656;-92
2024/03/24 04:50:04;;;;;;;5.22;1.33;;;;;;;8.90;60.30;100287.44;4948544;28;96889;-91
2024/03/24 04:52:30;;;;;;;4.65;1.27;;;;;;;8.91;60.27;100291.81;4944317;28;96994;-91
2024/03/24 04:54:55;;;;;;;3.25;1.55;;;;;;;8.92;60.28;100293.53;4947667;28;100512;-92
2024/03/24 04:57:22;;;;;;;6.15;1.45;;;;;;;8.93;60.38;100286.59;4952395;28;99581;-92
2024/03/24 04:59:48;;;;;;;4.63;1.20;;;;;;;8.92;60.19;100290.94;4965297;28;96875;-92
2024/03/24 05:02:14;;;;;;;5.85;1.50;;;;;;;8.94;60.38;100284.00;4939468;28;96921;-92
2024/03/24 05:04:40;;;;;;;4.82;1.38;;;;;;;8.97;60.32;100285.78;4960284;28;100992;-92
2024/03/24 05:07:05;;;;;;;3.47;1.40;;;;;;;8.99;60.34;100285.81;4955048;28;99730;-91
2024/03/24 05:09:31;;;;;;;8.20;1.33;;;;;;;9.00;60.56;100296.22;4948124;28;96849;-92
2024/03/24 05:11:56;;;;;;;5.03;1.50;;;;;;;9.01;60.43;100290.16;4938774;28;96869;-92
2024/03/24 05:14:22;;;;;;;7.43;1.73;;;;;;;9.03;60.35;100292.78;4959792;28;99258;-92
2024/03/24 05:16:47;;;;;;;10.07;1.95;;;;;;;9.05;60.29;100306.66;4958452;28;97884;-92
2024/03/24 05:19:13;;;;;;;4.93;1.80;;;;;;;9.05;60.37;100293.66;4954646;28;96829;-92
2024/03/24 05:21:38;;;;;;;5.78;1.95;;;;;;;9.05;60.38;100294.53;4956641;28;96856;-92
2024/03/24 05:24:05;;;;;;;6.65;1.95;;;;;;;9.07;60.34;100304.94;4953832;28;97650;-93
2024/03/24 05:26:30;;;;;;;10.30;2.22;;;;;;;9.08;60.57;100315.38;4960444;28;100345;-93
2024/03/24 05:28:56;;;;;;;8.80;2.05;;;;;;;9.10;60.29;100331.00;4963324;28;96822;-91
2024/03/24 05:31:22;;;;;;;10.18;2.28;;;;;;;9.12;60.57;100330.16;4948847;28;96970;-90
2024/03/24 05:33:48;;;;;;;8.23;2.55;;;;;;;9.11;60.53;100344.03;4965119;28;100816;-91
2024/03/24 05:36:14;;;;;;;10.23;1.90;;;;;;;9.09;60.25;100340.53;4957940;28;99126;-91
2024/03/24 05:38:39;;;;;;;7.25;1.92;;;;;;;9.09;60.66;100303.22;4949872;28;96889;-93
2024/03/24 05:41:05;;;;;;;5.35;2.22;;;;;;;9.08;60.59;100317.97;4954251;28;97005;-91
2024/03/24 05:43:30;;;;;;;6.70;1.92;;;;;;;9.07;60.81;100329.25;4964722;28;96842;-91
2024/03/24 05:45:56;;;;;;;8.02;1.88;;;;;;;9.04;60.58;100323.16;4965207;28;97502;-91
2024/03/24 05:48:22;;;;;;;6.85;1.83;;;;;;;9.02;60.66;100319.63;4943126;28;96856;-91
2024/03/24 05:51:02;;;;;;;5.28;1.52;;;;;;;8.95;60.68;100316.97;4956401;28;96988;-92
2024/03/24 05:53:28;;;;;;;6.15;2.30;;;;;;;8.95;60.69;100329.13;4964242;28;100837;-92
2024/03/24 05:55:53;;;;;;;7.85;1.90;;;;;;;8.91;60.67;100323.00;4947651;28;99257;-92
2024/03/24 05:58:19;;;;;;;10.18;2.15;;;;;;;8.87;60.44;100326.41;4961928;28;98551;-92
2024/03/24 06:00:48;;;;;;;9.77;2.88;;;;;;;8.85;60.64;100319.47;4943411;28;96885;-92
2024/03/24 06:03:14;;;;;;;9.90;3.10;;;;;;;8.83;60.72;100324.66;4957576;28;99268;-92
2024/03/24 06:05:40;;;;;;;13.15;2.83;;;;;;;8.82;60.68;100332.44;4961981;28;99101;-92
2024/03/24 06:08:10;;;;;;;5.90;2.05;;;;;;;8.80;60.57;100328.94;4943748;28;97496;-91
2024/03/24 06:10:45;;;;;;;8.35;2.42;;;;;;;8.77;60.84;100332.38;4956936;28;97053;-92
2024/03/24 06:13:10;;;;;;;12.00;2.33;;;;;;;8.76;60.96;100334.09;4973852;28;97049;-92
2024/03/24 06:15:36;;;;;;;12.27;2.58;;;;;;;8.76;60.85;100334.09;4957433;28;100042;-92
2024/03/24 06:18:05;;;;;;;10.13;2.83;;;;;;;8.77;60.95;100343.66;4964950;28;96857;-93
2024/03/24 06:20:38;;;;;;;7.35;2.90;;;;;;;8.77;61.08;100345.41;4963719;28;96841;-93
2024/03/24 06:23:04;;;;;;;10.88;2.25;;;;;;;8.78;60.98;100341.91;4962040;28;100730;-90
2024/03/24 06:25:30;;;;;;;12.80;3.08;;;;;;;8.80;61.06;100341.94;4969176;28;97723;-92
2024/03/24 06:27:56;;;;;;;12.23;2.65;;;;;;;8.81;61.14;100339.38;4946623;28;96739;-93
2024/03/24 06:30:22;;;;;;;8.82;2.13;;;;;;;8.84;61.33;100326.41;4969579;28;96779;-92
2024/03/24 06:32:48;;;;;;;10.60;2.70;;;;;;;8.87;61.40;100320.34;4970915;28;99453;-92
2024/03/24 06:35:14;;;;;;;9.15;2.50;;;;;;;8.91;61.56;100329.91;4963344;28;99065;-92
2024/03/24 06:37:39;;;;;;;12.98;3.20;;;;;;;8.93;61.58;100325.59;4963392;28;96890;-92
2024/03/24 06:40:09;;;;;;;7.43;2.50;;;;;;;8.96;61.45;100323.91;4960320;28;97000;-91
2024/03/24 06:42:44;;;;;;;10.27;2.88;;;;;;;9.00;61.47;100321.34;4944994;28;100586;-84
2024/03/24 06:45:13;;;;;;;17.95;3.30;;;;;;;9.03;61.50;100331.78;4950418;28;100347;-84
2024/03/24 06:47:38;;;;;;;15.38;3.35;;;;;;;9.06;61.74;100321.44;4950215;28;96879;-83
2024/03/24 06:50:05;;;;;;;10.57;3.50;;;;;;;9.11;61.76;100322.34;4955693;28;96909;-83
2024/03/24 06:52:32;;;;;;;13.00;4.20;;;;;;;9.19;62.01;100330.22;4955407;28;100929;-84
2024/03/24 06:54:58;;;;;;;15.07;3.97;;;;;;;9.26;61.98;100345.91;4942251;28;100324;-84
2024/03/24 06:57:23;;;;;;;15.15;3.75;;;;;;;9.32;62.18;100364.19;4937368;28;97028;-84
2024/03/24 06:59:49;;;;;;;13.23;4.10;;;;;;;9.37;61.54;100350.34;4961340;28;96805;-85
2024/03/24 07:02:14;;;;;;;9.15;2.53;;;;;;;9.32;61.52;100353.78;4950224;28;100807;-86
2024/03/24 07:04:40;;;;;;;8.93;2.20;;;;;;;9.26;61.05;100355.44;4959431;28;101142;-85
2024/03/24 07:07:05;;;;;;;12.10;2.40;;;;;;;9.19;61.22;100338.03;4955277;28;96711;-85
2024/03/24 07:09:31;;;;;;;8.70;2.55;;;;;;;9.12;61.02;100339.69;4954705;28;97068;-84
2024/03/24 07:11:56;;;;;;;7.75;2.10;;;;;;;9.06;61.24;100347.44;4947008;28;97951;-84
2024/03/24 07:14:22;;;;;;;9.95;2.30;;;;;;;9.01;61.30;100343.91;4952786;28;101004;-84
2024/03/24 07:16:47;;;;;;;7.45;1.98;;;;;;;8.98;61.49;100336.06;4939987;28;96766;-83
2024/03/24 07:19:12;;;;;;;8.57;2.22;;;;;;;9.00;62.14;100342.16;4953893;28;97310;-84
2024/03/24 07:21:38;;;;;;;15.15;3.25;;;;;;;9.07;62.23;100339.66;4939288;28;100156;-83
2024/03/24 07:24:05;;;;;;;12.95;3.20;;;;;;;9.14;62.33;100340.56;4952484;28;100305;-84
2024/03/24 07:26:49;;;;;;;;;;;;;;;;;;;;;
2024/03/24 07:29:15;;;;;;;20.02;4.50;;;;;;;9.27;62.42;100337.25;4954985;28;96826;-92
2024/03/24 07:31:41;;;;;;;17.00;5.05;;;;;;;9.32;62.40;100350.28;4939730;28;100434;-90
2024/03/24 07:34:08;;;;;;;18.08;3.83;;;;;;;9.37;62.25;100361.63;4951704;28;99006;-94
2024/03/24 07:36:33;;;;;;;17.50;4.35;;;;;;;9.39;62.35;100356.44;4942129;28;96883;-93
2024/03/24 07:39:03;;;;;;;20.30;3.90;;;;;;;9.40;62.53;100346.03;4944396;28;96867;-92
2024/03/24 07:41:28;;;;;;;17.77;3.63;;;;;;;9.46;62.90;100351.28;4943579;28;102027;-91
2024/03/24 07:43:54;;;;;;;18.48;3.92;;;;;;;9.56;62.89;100349.66;4956206;28;98540;-92
2024/03/24 07:46:20;;;;;;;18.27;3.80;;;;;;;9.63;62.97;100356.66;4940952;28;96805;-91
2024/03/24 07:48:45;;;;;;;15.68;3.80;;;;;;;9.69;62.64;100361.03;4954546;28;96933;-91
2024/03/24 07:51:11;;;;;;;18.77;3.88;;;;;;;9.72;62.42;100374.09;4956827;28;100581;-94
2024/03/24 07:53:36;;;;;;;18.95;3.70;;;;;;;9.75;62.37;100376.75;4959934;28;99112;-95
2024/03/24 07:56:02;;;;;;;17.63;3.20;;;;;;;9.75;62.10;100379.34;4948315;28;96674;-94
2024/03/24 07:58:27;;;;;;;14.50;3.08;;;;;;;9.74;62.05;100397.56;4959215;28;96876;-89
2024/03/24 08:00:53;;;;;;;7.93;2.17;;;;;;;9.69;61.71;100358.44;4936752;28;101270;-88
2024/03/24 08:03:19;;;;;;;12.88;2.47;;;;;;;9.63;61.71;100369.69;4956468;28;100337;-88
2024/03/24 08:05:44;;;;;;;11.57;2.40;;;;;;;9.58;61.61;100370.50;4940753;28;96918;-87
2024/03/24 08:08:10;;;;;;;10.65;2.10;;;;;;;9.51;61.68;100365.22;4951512;28;96867;-87
2024/03/24 08:10:35;;;;;;;10.05;2.63;;;;;;;9.48;61.70;100372.13;4944095;28;101477;-85
2024/03/24 08:13:01;;;;;;;10.82;2.30;;;;;;;9.44;61.71;100370.38;4948845;28;99343;-86
2024/03/24 08:15:26;;;;;;;11.45;2.72;;;;;;;9.43;61.96;100371.22;4948227;28;96917;-88
2024/03/24 08:17:51;;;;;;;9.57;2.78;;;;;;;9.43;62.07;100360.81;4932318;28;96966;-84
2024/03/24 08:20:20;;;;;;;14.18;2.95;;;;;;;9.44;62.41;100373.84;4950326;28;97557;-88
2024/03/24 08:22:45;;;;;;;14.13;3.30;;;;;;;9.48;62.63;100372.13;4952458;28;100206;-87
2024/03/24 08:25:11;;;;;;;15.73;3.22;;;;;;;9.54;62.76;100385.22;4939645;28;96780;-86
2024/03/24 08:27:36;;;;;;;15.43;3.53;;;;;;;9.59;62.94;100373.13;4952176;28;96961;-88
2024/03/24 08:30:02;;;;;;;12.45;2.88;;;;;;;9.65;62.69;100377.50;4951873;28;100522;-88
2024/03/24 08:32:28;;;;;;;11.77;2.70;;;;;;;9.67;62.45;100368.84;4951856;28;97488;-89
2024/03/24 08:34:53;;;;;;;11.35;2.13;;;;;;;9.70;62.35;100368.00;4949719;28;96885;-85
2024/03/24 08:37:19;;;;;;;8.52;1.85;;;;;;;9.69;62.24;100380.13;4932521;28;96969;-85
2024/03/24 08:39:44;;;;;;;7.63;2.03;;;;;;;9.68;62.04;100378.41;4947589;28;100433;-82
2024/03/24 08:42:10;;;;;;;11.57;2.88;;;;;;;9.69;62.24;100377.53;4953390;28;98230;-84
2024/03/24 08:44:35;;;;;;;9.10;2.08;;;;;;;9.71;62.31;100380.16;4955572;28;96827;-86
2024/03/24 08:47:01;;;;;;;12.70;2.47;;;;;;;9.75;62.30;100375.84;4950181;28;96913;-84
2024/03/24 08:49:26;;;;;;;16.55;2.90;;;;;;;9.81;62.53;100383.72;4951974;28;98028;-86
2024/03/24 08:51:52;;;;;;;10.80;2.67;;;;;;;9.84;62.83;100374.22;4945931;28;97521;-82
2024/03/24 08:54:18;;;;;;;15.60;3.22;;;;;;;9.93;62.87;100386.44;4953837;28;96860;-90
2024/03/24 08:56:43;;;;;;;17.52;3.15;;;;;;;9.99;62.65;100385.59;4958542;28;96875;-92
2024/03/24 08:59:09;;;;;;;10.82;2.70;;;;;;;10.02;62.51;100389.09;4963767;28;100281;-94
2024/03/24 09:01:35;;;;;;;17.58;3.45;;;;;;;10.05;62.37;100409.97;4962948;28;97895;-95
2024/03/24 09:04:01;;;;;;;21.60;3.38;;;;;;;10.06;62.10;100424.75;4960551;28;96810;-96
2024/03/24 09:06:26;;;;;;;16.35;2.83;;;;;;;10.04;61.93;100404.75;4951246;28;96793;-85
2024/03/24 09:08:52;;;;;;;8.70;1.88;;;;;;;9.97;61.75;100427.28;4957216;28;100810;-86
2024/03/24 09:11:18;;;;;;;12.10;2.08;;;;;;;9.89;61.74;100422.00;4945843;28;99809;-87
2024/03/24 09:13:44;;;;;;;10.93;1.48;;;;;;;9.83;62.05;100414.13;4956991;28;96890;-85
2024/03/24 09:16:10;;;;;;;10.50;2.10;;;;;;;9.83;62.35;100423.69;4958824;28;96942;-85
2024/03/24 09:18:38;;;;;;;9.57;1.88;;;;;;;9.85;62.42;100417.63;4958296;28;98240;-84
2024/03/24 09:21:05;;;;;;;7.15;1.70;;;;;;;9.88;62.75;100432.41;4959397;28;99055;-84
2024/03/24 09:23:32;;;;;;;5.70;1.52;;;;;;;9.89;62.52;100426.31;4957001;28;96747;-84
2024/03/24 09:25:58;;;;;;;5.90;1.58;;;;;;;9.93;62.42;100429.84;4949123;28;97028;-86
2024/03/24 09:28:23;;;;;;;10.35;1.85;;;;;;;9.94;62.68;100434.19;4941968;28;100883;-84
2024/03/24 09:31:06;;;;;;;7.22;1.63;;;;;;;9.93;62.49;100428.13;4954683;28;100216;-85
2024/03/24 09:33:32;;;;;;;7.43;1.75;;;;;;;9.95;62.26;100426.41;4952982;28;96872;-85
2024/03/24 09:36:01;;;;;;;11.18;1.50;;;;;;;9.96;62.46;100427.25;4944171;28;96951;-86
2024/03/24 09:38:27;;;;;;;9.98;2.03;;;;;;;9.99;62.71;100428.16;4949408;28;97613;-84
2024/03/24 09:40:53;;;;;;;7.47;2.03;;;;;;;10.03;63.20;100435.13;4944421;28;97869;-84
2024/03/24 09:43:19;;;;;;;6.22;1.52;;;;;;;10.10;63.39;100428.25;4945949;28;97208;-85
2024/03/24 09:45:45;;;;;;;9.90;1.33;;;;;;;10.19;63.16;100423.09;4938552;28;96965;-86
2024/03/24 09:48:12;;;;;;;4.40;1.40;;;;;;;10.24;62.79;100436.16;4955627;28;100252;-92
2024/03/24 09:50:39;;;;;;;9.60;1.50;;;;;;;10.26;62.55;100437.06;4961141;28;96933;-92
2024/03/24 09:53:05;;;;;;;6.68;1.13;;;;;;;10.26;62.30;100426.63;4933446;28;96897;-91
2024/03/24 09:55:30;;;;;;;10.05;1.50;;;;;;;10.26;62.33;100422.28;4953128;28;96937;-92
2024/03/24 09:57:58;;;;;;;10.52;2.28;;;;;;;10.27;62.40;100437.06;4957404;28;100987;-93
2024/03/24 10:00:23;;;;;;;13.38;2.25;;;;;;;10.28;62.30;100431.00;4961393;28;97910;-92
2024/03/24 10:02:50;;;;;;;10.15;2.58;;;;;;;10.30;62.45;100433.59;4962970;28;96880;-92
2024/03/24 10:05:17;;;;;;;14.65;3.17;;;;;;;10.32;62.46;100426.72;4960133;28;96974;-90
2024/03/24 10:07:43;;;;;;;13.57;2.50;;;;;;;10.34;62.50;100425.00;4941222;28;100256;-89
2024/03/24 10:10:10;;;;;;;16.33;2.33;;;;;;;10.39;62.92;100423.28;4938710;28;100406;-90
2024/03/24 10:12:36;;;;;;;12.57;2.13;;;;;;;10.45;63.10;100423.31;4930953;28;96771;-90
2024/03/24 10:15:16;;;;;;;12.07;2.60;;;;;;;10.53;63.05;100422.50;4958820;28;96706;-92
2024/03/24 10:17:42;;;;;;;24.27;2.78;;;;;;;10.65;62.96;100427.78;4935712;28;102014;-90
2024/03/24 10:20:14;;;;;;;13.45;2.30;;;;;;;10.74;63.07;100427.81;4940924;28;99576;-90
2024/03/24 10:22:53;;;;;;;14.93;2.40;;;;;;;10.83;62.93;100416.56;4954681;28;96744;-89
2024/03/24 10:25:25;;;;;;;13.05;2.30;;;;;;;10.94;62.53;100422.69;4961565;28;96856;-89
2024/03/24 10:27:51;;;;;;;17.77;2.95;;;;;;;11.03;62.65;100424.47;4954981;28;100435;-92
2024/03/24 10:30:18;;;;;;;17.70;2.97;;;;;;;11.10;62.29;100422.75;4953656;28;97453;-89
2024/03/24 10:32:44;;;;;;;13.73;1.88;;;;;;;11.13;62.03;100423.63;4944156;28;96838;-90
2024/03/24 10:35:10;;;;;;;10.88;2.15;;;;;;;11.15;61.82;100431.47;4950995;28;96915;-91
2024/03/24 10:37:36;;;;;;;15.50;2.67;;;;;;;11.17;61.74;100432.34;4958953;28;96824;-89
2024/03/24 10:40:05;;;;;;;22.55;2.90;;;;;;;11.16;61.50;100423.66;4947783;28;97790;-90
2024/03/24 10:42:34;;;;;;;10.23;2.50;;;;;;;11.16;61.63;100428.88;4945846;28;97088;-85
2024/03/24 10:45:06;;;;;;;12.68;2.63;;;;;;;11.17;61.40;100427.13;4963621;28;96951;-82
2024/03/24 10:47:33;;;;;;;18.42;2.85;;;;;;;11.17;61.34;100425.38;4947750;28;100445;-84
2024/03/24 10:49:58;;;;;;;20.80;2.97;;;;;;;11.17;61.39;100425.38;4953229;28;100574;-87
2024/03/24 10:52:30;;;;;;;14.98;2.65;;;;;;;11.17;60.79;100429.75;4927007;28;96913;-87
2024/03/24 10:54:57;;;;;;;11.82;2.15;;;;;;;11.18;61.04;100429.75;4951795;28;97135;-84
2024/03/24 10:57:26;;;;;;;12.20;2.33;;;;;;;11.20;60.99;100430.63;4956008;28;97856;-86
2024/03/24 10:59:57;;;;;;;;;;;;;;;11.20;61.32;100435.84;4947002;28;99744;-85
2024/03/24 11:02:23;;;;;;;11.25;2.40;;;;;;;11.27;61.13;100430.66;4953887;28;96919;-93
2024/03/24 11:04:53;;;;;;;13.35;1.88;;;;;;;11.30;60.88;100442.00;4958193;28;96907;-91
2024/03/24 11:07:20;;;;;;;;;;;;;;;11.32;61.22;100441.97;4944568;28;100971;-93
2024/03/24 11:09:45;;;;;;;11.38;1.95;;;;;;;11.37;60.79;100443.75;4950820;28;99080;-89
2024/03/24 11:12:12;;;;;;;11.48;2.45;;;;;;;11.39;60.98;100441.13;4950504;28;96804;-91
2024/03/24 11:14:38;;;;;;;16.20;2.58;;;;;;;11.41;60.56;100445.50;4936870;28;96988;-89
2024/03/24 11:17:04;;;;;;;14.35;2.88;;;;;;;11.43;60.72;100442.88;4953145;28;97953;-90
2024/03/24 11:19:31;;;;;;;15.88;2.75;;;;;;;11.47;61.12;100456.81;4953232;28;100291;-90
2024/03/24 11:21:57;;;;;;;11.35;2.92;;;;;;;11.48;60.90;100441.16;4954881;28;96974;-89